createdAt,value
2019-01-16T00:04:15.500Z,97690.38
2019-01-16T00:07:23.321Z,97692.03
2019-01-16T00:13:30.206Z,97469.16
2019-01-16T00:16:30.581Z,97680.94
2019-01-16T00:22:47.821Z,97570.59
2019-01-16T00:25:55.652Z,97675.94
2019-01-16T00:29:03.489Z,97409.73
2019-01-16T00:35:00.008Z,97658.48
2019-01-16T00:38:07.818Z,97664.03
2019-01-16T00:41:15.640Z,97661.88
2019-01-16T00:44:23.542Z,97657.67
2019-01-16T00:47:31.361Z,97654.21
2019-01-16T00:50:39.436Z,97661.03
2019-01-16T00:59:42.131Z,97405.95
2019-01-16T01:02:49.971Z,97652.16
2019-01-16T01:08:53.544Z,97372.45
2019-01-16T01:12:01.428Z,97550.21
2019-01-16T01:15:02.433Z,97557.88
2019-01-16T01:18:10.263Z,97646.62
2019-01-16T01:21:18.327Z,97644.06
2019-01-16T01:24:26.167Z,97638.13
2019-01-16T01:27:33.981Z,97367.33
2019-01-16T01:30:41.849Z,97632.55
2019-01-16T01:33:49.674Z,97635.44
2019-01-16T01:36:57.511Z,97366.43
2019-01-16T01:40:05.347Z,97623.05
2019-01-16T01:46:22.556Z,97374.10
2019-01-16T01:49:30.443Z,97632.52
2019-01-16T01:52:38.516Z,97624.88
2019-01-16T02:01:51.415Z,97629.95
2019-01-16T02:04:59.487Z,97416.35
2019-01-16T02:14:02.268Z,97645.66
2019-01-16T02:16:45.969Z,97619.29
2019-01-16T02:19:53.786Z,97621.88
2019-01-16T02:23:01.614Z,97416.04
2019-01-16T02:26:09.439Z,97618.41
2019-01-16T02:29:17.251Z,97616.22
2019-01-16T02:32:25.085Z,97605.62
2019-01-16T02:35:08.016Z,97612.75
2019-01-16T02:38:15.847Z,97437.49
2019-01-16T02:41:23.925Z,97604.17
2019-01-16T02:44:31.765Z,97599.60
2019-01-16T02:47:39.585Z,97592.96
2019-01-16T02:50:47.432Z,97595.06
2019-01-16T02:53:55.247Z,97594.20
2019-01-16T02:57:03.084Z,97549.17
2019-01-16T03:03:20.295Z,97579.75
2019-01-16T03:06:28.366Z,97334.12
2019-01-16T03:12:31.915Z,97324.85
2019-01-16T03:15:11.470Z,97569.46
2019-01-16T03:27:24.097Z,97557.96
2019-01-16T03:30:32.002Z,97558.34
2019-01-16T03:33:39.820Z,97550.44
2019-01-16T03:36:47.648Z,97550.83
2019-01-16T03:39:55.461Z,97537.63
2019-01-16T03:43:03.296Z,97549.95
2019-01-16T03:46:11.111Z,97546.51
2019-01-16T03:55:14.114Z,97455.27
2019-01-16T03:58:21.996Z,97531.22
2019-01-16T04:01:29.832Z,97526.00
2019-01-16T04:07:33.529Z,97520.91
2019-01-16T04:13:37.126Z,97517.50
2019-01-16T04:16:37.404Z,97517.86
2019-01-16T04:19:45.254Z,97308.92
2019-01-16T04:31:43.274Z,97498.63
2019-01-16T04:34:51.098Z,97490.52
2019-01-16T04:40:58.200Z,97496.90
2019-01-16T04:47:16.984Z,97496.49
2019-01-16T04:50:45.822Z,97496.53
2019-01-16T04:53:53.647Z,97495.22
2019-01-16T04:57:01.467Z,97273.63
2019-01-16T05:00:09.300Z,97413.37
2019-01-16T05:03:17.109Z,97485.94
2019-01-16T05:09:45.229Z,97480.04
2019-01-16T05:12:53.089Z,97477.81
2019-01-16T05:16:00.931Z,97468.19
2019-01-16T05:19:01.502Z,97238.59
2019-01-16T05:22:09.346Z,97462.55
2019-01-16T05:28:26.559Z,97452.63
2019-01-16T05:31:35.668Z,97440.37
2019-01-16T05:34:43.932Z,97444.73
2019-01-16T05:41:01.169Z,97370.80
2019-01-16T05:47:18.362Z,97436.77
2019-01-16T05:53:56.471Z,97440.38
2019-01-16T05:57:04.291Z,97433.99
2019-01-16T06:00:12.124Z,97176.33
2019-01-16T06:03:19.939Z,97288.35
2019-01-16T06:09:44.116Z,97422.90
2019-01-16T06:12:51.930Z,97423.46
2019-01-16T06:18:48.786Z,97420.20
2019-01-16T06:24:52.389Z,97412.88
2019-01-16T06:28:00.205Z,97406.88
2019-01-16T06:34:07.105Z,97415.25
2019-01-16T06:36:50.128Z,97409.30
2019-01-16T06:39:57.944Z,97174.93
2019-01-16T06:43:05.771Z,97415.31
2019-01-16T06:45:54.328Z,97421.80
2019-01-16T06:49:02.162Z,97408.78
2019-01-16T06:55:19.389Z,97167.88
2019-01-16T06:58:27.269Z,97414.52
2019-01-16T07:07:33.363Z,97423.56
2019-01-16T07:10:41.194Z,97421.58
2019-01-16T07:13:49.028Z,97424.73
2019-01-16T07:16:57.140Z,97428.97
2019-01-16T07:20:09.610Z,97428.48
2019-01-16T07:23:14.516Z,97287.86
2019-01-16T07:29:31.733Z,97413.05
2019-01-16T07:32:39.549Z,97411.58
2019-01-16T07:35:47.633Z,97415.51
2019-01-16T07:42:03.542Z,97413.39
2019-01-16T07:45:11.348Z,97419.42
2019-01-16T07:48:19.181Z,97424.05
2019-01-16T07:51:26.992Z,97422.36
2019-01-16T07:54:15.484Z,97434.08
2019-01-16T07:57:23.373Z,97430.25
2019-01-16T08:00:52.125Z,97424.67
2019-01-16T08:03:59.944Z,97421.05
2019-01-16T08:10:03.533Z,97209.03
2019-01-16T08:12:52.082Z,97412.75
2019-01-16T08:21:34.359Z,97187.83
2019-01-16T08:24:42.189Z,97336.84
2019-01-16T08:27:50.019Z,97370.63
2019-01-16T08:34:07.399Z,97420.33
2019-01-16T08:37:15.244Z,97413.30
2019-01-16T08:40:43.972Z,97409.83
2019-01-16T08:46:41.850Z,97418.83
2019-01-16T08:49:49.669Z,97419.56
2019-01-16T08:52:57.507Z,97425.60
2019-01-16T08:56:05.352Z,97429.05
2019-01-16T09:02:22.701Z,97400.37
2019-01-16T09:05:30.687Z,97403.44
2019-01-16T09:11:37.868Z,97410.73
2019-01-16T09:14:45.687Z,97410.52
2019-01-16T09:17:53.523Z,97343.06
2019-01-16T09:20:54.445Z,97416.29
2019-01-16T09:27:01.357Z,97384.47
2019-01-16T09:33:18.555Z,97400.54
2019-01-16T09:36:26.385Z,97407.33
2019-01-16T09:39:34.208Z,97417.27
2019-01-16T09:42:42.044Z,97323.55
2019-01-16T09:45:49.866Z,97346.03
2019-01-16T09:48:57.705Z,97412.00
2019-01-16T09:52:05.523Z,97407.66
2019-01-16T09:55:13.355Z,97407.86
2019-01-16T09:58:21.181Z,97404.03
2019-01-16T10:01:29.012Z,97395.97
2019-01-16T10:04:36.850Z,97131.92
2019-01-16T10:07:44.662Z,97403.21
2019-01-16T10:10:52.491Z,97383.62
2019-01-16T10:14:00.329Z,97377.64
2019-01-16T10:17:08.427Z,97384.32
2019-01-16T10:20:16.247Z,97372.67
2019-01-16T10:23:02.298Z,97303.20
2019-01-16T10:26:10.118Z,97135.21
2019-01-16T10:29:17.953Z,97368.06
2019-01-16T10:35:35.319Z,97281.86
2019-01-16T10:38:43.142Z,97348.72
2019-01-16T10:41:50.969Z,97342.86
2019-01-16T10:44:58.784Z,97332.74
2019-01-16T10:48:06.617Z,97338.27
2019-01-16T10:54:23.977Z,97335.36
2019-01-16T10:57:31.785Z,97337.73
2019-01-16T11:00:39.692Z,97059.92
2019-01-16T11:03:47.508Z,97320.80
2019-01-16T11:06:55.345Z,97318.87
2019-01-16T11:16:11.774Z,97309.02
2019-01-16T11:19:12.013Z,97303.53
2019-01-16T11:22:19.841Z,97287.84
2019-01-16T11:25:48.572Z,97283.31
2019-01-16T11:28:56.397Z,97188.44
2019-01-16T11:35:13.674Z,97246.15
2019-01-16T11:38:02.235Z,97238.45
2019-01-16T11:41:10.136Z,96969.89
2019-01-16T11:44:18.198Z,97217.70
2019-01-16T11:47:26.044Z,97239.73
2019-01-16T11:50:33.923Z,97231.58
2019-01-16T11:53:41.763Z,97071.67
2019-01-16T11:59:45.254Z,97199.84
2019-01-16T12:02:53.089Z,97194.63
2019-01-16T12:06:00.987Z,97198.28
2019-01-16T12:09:08.820Z,97047.27
2019-01-16T12:18:42.718Z,97215.11
2019-01-16T12:21:26.595Z,97210.30
2019-01-16T12:24:34.629Z,97210.33
2019-01-16T12:27:42.470Z,97195.86
2019-01-16T12:33:59.680Z,97190.05
2019-01-16T12:37:07.490Z,96967.66
2019-01-16T12:40:15.328Z,96891.58
2019-01-16T12:46:51.553Z,97173.41
2019-01-16T12:56:07.795Z,97149.83
2019-01-16T13:02:07.549Z,97161.28
2019-01-16T13:05:15.468Z,96921.11
2019-01-16T13:08:23.439Z,97125.88
2019-01-16T13:20:14.974Z,97121.69
2019-01-16T13:23:22.804Z,97110.22
2019-01-16T13:29:40.176Z,97107.98
2019-01-16T13:32:47.991Z,97094.87
2019-01-16T13:35:55.844Z,97088.55
2019-01-16T13:39:03.695Z,96864.59
2019-01-16T13:41:49.575Z,97086.52
2019-01-16T13:44:57.641Z,96937.46
2019-01-16T13:51:04.681Z,97063.75
2019-01-16T13:54:12.577Z,97061.37
2019-01-16T13:57:20.408Z,97058.31
2019-01-16T14:00:49.149Z,97051.13
2019-01-16T14:06:52.692Z,97053.81
2019-01-16T14:12:56.269Z,97038.34
2019-01-16T14:19:00.016Z,97042.83
2019-01-16T14:25:17.230Z,97033.50
2019-01-16T14:28:25.212Z,97034.23
2019-01-16T14:31:33.116Z,96778.36
2019-01-16T14:34:41.097Z,96957.47
2019-01-16T14:37:48.937Z,97014.40
2019-01-16T14:44:04.432Z,97000.96
2019-01-16T14:47:12.247Z,96988.83
2019-01-16T14:56:12.002Z,96990.84
2019-01-16T14:59:19.810Z,96990.76
2019-01-16T15:08:39.116Z,96994.18
2019-01-16T15:11:46.925Z,96987.95
2019-01-16T15:14:54.771Z,96854.89
2019-01-16T15:18:02.587Z,96911.48
2019-01-16T15:21:10.427Z,96962.86
2019-01-16T15:24:10.852Z,96863.51
2019-01-16T15:27:18.691Z,96952.63
2019-01-16T15:30:45.847Z,96948.91
2019-01-16T15:33:53.676Z,96942.91
2019-01-16T15:39:38.565Z,96930.66
2019-01-16T15:42:46.385Z,96933.68
2019-01-16T15:45:54.230Z,96927.67
2019-01-16T15:52:13.169Z,96840.91
2019-01-16T15:55:21.246Z,96929.05
2019-01-16T16:01:28.360Z,96929.18
2019-01-16T16:04:36.175Z,96928.78
2019-01-16T16:13:50.036Z,96705.72
2019-01-16T16:16:57.874Z,96709.80
2019-01-16T16:20:05.693Z,96850.30
2019-01-16T16:23:13.529Z,96906.23
2019-01-16T16:29:30.748Z,96912.89
2019-01-16T16:32:38.561Z,96899.59
2019-01-16T16:35:46.400Z,96900.95
2019-01-16T16:38:54.208Z,96909.34
2019-01-16T16:41:55.244Z,96895.05
2019-01-16T16:48:12.455Z,96696.98
2019-01-16T16:51:20.268Z,96893.67
2019-01-16T16:57:07.731Z,96841.09
2019-01-16T17:00:15.565Z,96872.78
2019-01-16T17:06:30.514Z,96863.06
2019-01-16T17:12:47.751Z,96863.53
2019-01-16T17:15:55.614Z,96853.52
2019-01-16T17:21:38.329Z,96845.91
2019-01-16T17:27:55.683Z,96652.78
2019-01-16T17:31:03.588Z,96836.89
2019-01-16T17:34:11.490Z,96828.23
2019-01-16T17:37:19.338Z,96587.02
2019-01-16T17:40:48.130Z,96582.80
2019-01-16T17:43:55.974Z,96813.66
2019-01-16T17:47:03.935Z,96807.39
2019-01-16T17:53:21.267Z,96795.92
2019-01-16T17:56:29.078Z,96793.73
2019-01-16T17:59:37.229Z,96798.16
2019-01-16T18:09:14.818Z,96802.27
2019-01-16T18:21:17.260Z,96776.52
2019-01-16T18:24:25.190Z,96767.17
2019-01-16T18:27:33.114Z,96563.39
2019-01-16T18:30:41.052Z,96763.13
2019-01-16T18:33:49.014Z,96763.16
2019-01-16T18:40:06.443Z,96504.16
2019-01-16T18:43:14.478Z,96751.84
2019-01-16T18:46:22.426Z,96736.72
2019-01-16T18:49:30.434Z,96750.38
2019-01-16T18:52:38.380Z,96756.16
2019-01-16T18:55:46.271Z,96745.19
2019-01-16T18:58:54.251Z,96736.28
2019-01-16T19:02:02.283Z,96732.09
2019-01-16T19:05:10.379Z,96727.78
2019-01-16T19:08:18.516Z,96726.23
2019-01-16T19:11:26.487Z,96585.22
2019-01-16T19:14:34.623Z,96512.84
2019-01-16T19:17:42.869Z,96724.19
2019-01-16T19:20:51.162Z,96750.05
2019-01-16T19:23:52.686Z,96728.38
2019-01-16T19:30:32.033Z,96503.11
2019-01-16T19:39:50.037Z,96711.13
2019-01-16T19:48:53.248Z,96711.11
2019-01-16T19:52:01.847Z,96686.34
2019-01-16T19:58:19.678Z,96705.64
2019-01-16T20:04:37.070Z,96700.50
2019-01-16T20:10:54.858Z,96686.52
2019-01-16T20:14:02.898Z,96678.89
2019-01-16T20:20:07.487Z,96674.77
2019-01-16T20:22:54.827Z,96687.54
2019-01-16T20:26:03.487Z,96673.48
2019-01-16T20:29:31.426Z,96597.16
2019-01-16T20:39:03.881Z,96661.08
2019-01-16T20:41:53.163Z,96660.91
2019-01-16T20:45:01.282Z,96659.62
2019-01-16T20:48:09.237Z,96659.30
2019-01-16T20:51:17.094Z,96643.14
2019-01-16T20:57:34.577Z,96651.84
2019-01-16T21:00:23.251Z,96646.34
2019-01-16T21:03:31.238Z,96660.33
2019-01-16T21:06:39.095Z,96647.61
2019-01-16T21:09:25.340Z,96639.78
2019-01-16T21:12:33.547Z,96645.86
2019-01-16T21:15:41.536Z,96644.39
2019-01-16T21:18:49.424Z,96639.81
2019-01-16T21:24:56.629Z,96620.94
2019-01-16T21:28:04.495Z,96381.02
2019-01-16T21:31:12.334Z,96602.20
2019-01-16T21:37:37.136Z,96597.41
2019-01-16T21:40:44.950Z,96359.11
2019-01-16T21:43:52.783Z,96473.30
2019-01-16T21:47:01.683Z,96409.02
2019-01-16T21:50:09.531Z,96509.96
2019-01-16T21:53:17.442Z,96610.80
2019-01-16T21:56:05.997Z,96605.41
2019-01-16T21:59:13.887Z,96601.45
2019-01-16T22:02:21.726Z,96507.52
2019-01-16T22:05:29.618Z,96610.94
2019-01-16T22:11:36.351Z,96604.65
2019-01-16T22:14:44.189Z,96447.20
2019-01-16T22:17:52.073Z,96583.38
2019-01-16T22:20:59.911Z,96594.08
2019-01-16T22:24:07.723Z,96596.86
2019-01-16T22:27:15.554Z,96608.91
2019-01-16T22:30:44.287Z,96618.55
2019-01-16T22:33:52.188Z,96386.25
2019-01-16T22:37:00.006Z,96595.44
2019-01-16T22:40:07.846Z,96581.53
2019-01-16T22:43:15.675Z,96580.30
2019-01-16T22:46:23.562Z,96572.97
2019-01-16T22:49:31.461Z,96578.19
2019-01-16T22:52:39.277Z,96565.45
2019-01-16T22:55:47.122Z,96567.73
2019-01-16T23:05:03.375Z,96559.48
2019-01-16T23:08:11.195Z,96345.81
2019-01-16T23:11:12.148Z,96548.58
2019-01-16T23:14:19.981Z,96540.41
2019-01-16T23:17:27.818Z,96545.69
2019-01-16T23:23:49.786Z,96531.45
2019-01-16T23:26:54.554Z,96529.61
2019-01-16T23:32:58.241Z,96271.87
2019-01-16T23:36:06.078Z,96509.01
2019-01-16T23:39:13.898Z,96498.44
2019-01-16T23:42:21.736Z,96512.01
2019-01-16T23:45:29.731Z,96508.29
2019-01-16T23:48:37.569Z,96517.50
2019-01-16T23:51:45.381Z,96392.20
2019-01-16T23:54:53.220Z,96516.32
2019-01-16T23:58:01.047Z,96514.77
